sensor_id;sensor_type;location;lat;lon;timestamp;pressure;altitude;pressure_sealevel;temperature;humidity
34237;BME280;20501;45.956;13.632;2023-03-14T00:01:22;100178.19;;;12.61;68.59
34237;BME280;20501;45.956;13.632;2023-03-14T00:03:49;100176.16;;;13.23;62.85
34237;BME280;20501;45.956;13.632;2023-03-14T00:06:15;100168.09;;;13.48;61.79
34237;BME280;20501;45.956;13.632;2023-03-14T00:08:42;100156.53;;;13.54;61.67
34237;BME280;20501;45.956;13.632;2023-03-14T00:11:10;100154.16;;;13.67;61.16
34237;BME280;20501;45.956;13.632;2023-03-14T00:13:36;100147.03;;;13.66;60.91
34237;BME280;20501;45.956;13.632;2023-03-14T00:16:04;100145.00;;;13.76;60.73
34237;BME280;20501;45.956;13.632;2023-03-14T00:18:30;100148.38;;;13.78;60.75
34237;BME280;20501;45.956;13.632;2023-03-14T00:20:58;100145.34;;;13.82;60.65
34237;BME280;20501;45.956;13.632;2023-03-14T00:23:24;100138.06;;;13.66;64.99
34237;BME280;20501;45.956;13.632;2023-03-14T00:25:50;100124.31;;;13.59;61.69
34237;BME280;20501;45.956;13.632;2023-03-14T00:28:15;100115.84;;;13.54;62.02
34237;BME280;20501;45.956;13.632;2023-03-14T00:30:40;100117.38;;;13.65;61.42
34237;BME280;20501;45.956;13.632;2023-03-14T00:33:06;100120.03;;;12.98;64.61
34237;BME280;20501;45.956;13.632;2023-03-14T00:35:31;100107.53;;;13.22;63.61
34237;BME280;20501;45.956;13.632;2023-03-14T00:37:57;100112.09;;;13.05;70.13
34237;BME280;20501;45.956;13.632;2023-03-14T00:40:22;100100.25;;;13.48;62.68
34237;BME280;20501;45.956;13.632;2023-03-14T00:42:47;100097.34;;;13.66;61.63
34237;BME280;20501;45.956;13.632;2023-03-14T00:45:13;100077.13;;;13.76;61.13
34237;BME280;20501;45.956;13.632;2023-03-14T00:47:38;100073.97;;;13.40;63.78
34237;BME280;20501;45.956;13.632;2023-03-14T00:50:04;100068.50;;;13.65;62.13
34237;BME280;20501;45.956;13.632;2023-03-14T00:52:30;100069.69;;;12.88;68.18
34237;BME280;20501;45.956;13.632;2023-03-14T00:54:55;100061.19;;;12.74;69.66
34237;BME280;20501;45.956;13.632;2023-03-14T00:57:21;100055.47;;;13.35;63.33
34237;BME280;20501;45.956;13.632;2023-03-14T00:59:46;100046.28;;;13.53;62.74
34237;BME280;20501;45.956;13.632;2023-03-14T01:02:11;100048.16;;;13.60;62.70
34237;BME280;20501;45.956;13.632;2023-03-14T01:04:37;100046.53;;;12.26;73.90
34237;BME280;20501;45.956;13.632;2023-03-14T01:07:04;100048.53;;;11.89;74.34
34237;BME280;20501;45.956;13.632;2023-03-14T01:09:29;100038.56;;;11.10;79.77
34237;BME280;20501;45.956;13.632;2023-03-14T01:11:55;100044.50;;;11.14;78.92
34237;BME280;20501;45.956;13.632;2023-03-14T01:14:20;100026.94;;;11.10;77.89
34237;BME280;20501;45.956;13.632;2023-03-14T01:16:46;100028.47;;;10.94;79.41
34237;BME280;20501;45.956;13.632;2023-03-14T01:19:11;100026.34;;;11.51;73.98
34237;BME280;20501;45.956;13.632;2023-03-14T01:21:37;100022.28;;;11.02;77.52
34237;BME280;20501;45.956;13.632;2023-03-14T01:24:04;100000.44;;;11.74;75.86
34237;BME280;20501;45.956;13.632;2023-03-14T01:26:32;99983.28;;;12.84;67.90
34237;BME280;20501;45.956;13.632;2023-03-14T01:28:58;99973.88;;;13.37;65.30
34237;BME280;20501;45.956;13.632;2023-03-14T01:31:24;99976.44;;;13.30;67.60
34237;BME280;20501;45.956;13.632;2023-03-14T01:33:50;99977.13;;;11.82;75.04
34237;BME280;20501;45.956;13.632;2023-03-14T01:36:16;99993.06;;;11.24;78.01
34237;BME280;20501;45.956;13.632;2023-03-14T01:38:42;99982.59;;;11.03;79.01
34237;BME280;20501;45.956;13.632;2023-03-14T01:41:12;99988.44;;;11.42;77.93
34237;BME280;20501;45.956;13.632;2023-03-14T01:43:37;99968.53;;;11.86;76.13
34237;BME280;20501;45.956;13.632;2023-03-14T01:48:38;99972.59;;;12.91;68.12
34237;BME280;20501;45.956;13.632;2023-03-14T01:51:07;99957.66;;;13.20;66.59
34237;BME280;20501;45.956;13.632;2023-03-14T01:53:35;99948.72;;;13.03;68.43
34237;BME280;20501;45.956;13.632;2023-03-14T01:56:02;99941.59;;;13.02;68.51
34237;BME280;20501;45.956;13.632;2023-03-14T01:58:30;99943.19;;;11.96;75.77
34237;BME280;20501;45.956;13.632;2023-03-14T02:01:01;99928.41;;;12.41;70.67
34237;BME280;20501;45.956;13.632;2023-03-14T02:03:29;99913.63;;;12.11;74.67
34237;BME280;20501;45.956;13.632;2023-03-14T02:05:59;99901.13;;;12.51;69.67
34237;BME280;20501;45.956;13.632;2023-03-14T02:08:26;99908.75;;;12.47;71.52
34237;BME280;20501;45.956;13.632;2023-03-14T02:10:52;99898.91;;;12.79;69.98
34237;BME280;20501;45.956;13.632;2023-03-14T02:13:19;99894.34;;;12.88;68.23
34237;BME280;20501;45.956;13.632;2023-03-14T02:15:45;99897.25;;;12.45;71.63
34237;BME280;20501;45.956;13.632;2023-03-14T02:18:12;99888.09;;;12.71;70.71
34237;BME280;20501;45.956;13.632;2023-03-14T02:26:19;99870.38;;;13.08;68.17
34237;BME280;20501;45.956;13.632;2023-03-14T02:28:46;99866.19;;;12.97;67.10
34237;BME280;20501;45.956;13.632;2023-03-14T02:31:13;99870.78;;;12.89;67.63
34237;BME280;20501;45.956;13.632;2023-03-14T02:33:39;99849.88;;;13.14;66.55
34237;BME280;20501;45.956;13.632;2023-03-14T02:36:11;99840.91;;;13.13;67.58
34237;BME280;20501;45.956;13.632;2023-03-14T02:38:50;99829.09;;;12.90;69.29
34237;BME280;20501;45.956;13.632;2023-03-14T02:41:18;99820.66;;;13.32;65.48
34237;BME280;20501;45.956;13.632;2023-03-14T02:43:43;99822.31;;;13.34;65.32
34237;BME280;20501;45.956;13.632;2023-03-14T02:46:12;99828.13;;;13.30;65.81
34237;BME280;20501;45.956;13.632;2023-03-14T02:48:45;99822.41;;;12.36;72.76
34237;BME280;20501;45.956;13.632;2023-03-14T02:51:14;99824.47;;;13.07;67.05
34237;BME280;20501;45.956;13.632;2023-03-14T02:53:40;99828.06;;;13.47;65.03
34237;BME280;20501;45.956;13.632;2023-03-14T02:56:08;99823.94;;;13.59;64.51
34237;BME280;20501;45.956;13.632;2023-03-14T02:58:33;99822.44;;;12.28;73.08
34237;BME280;20501;45.956;13.632;2023-03-14T03:00:59;99823.97;;;13.03;68.67
34237;BME280;20501;45.956;13.632;2023-03-14T03:03:24;99833.66;;;11.65;77.15
34237;BME280;20501;45.956;13.632;2023-03-14T03:05:51;99837.47;;;12.05;74.68
34237;BME280;20501;45.956;13.632;2023-03-14T03:08:18;99837.56;;;12.95;67.43
34237;BME280;20501;45.956;13.632;2023-03-14T03:10:43;99826.38;;;13.38;65.48
34237;BME280;20501;45.956;13.632;2023-03-14T03:13:09;99828.16;;;12.33;73.49
34237;BME280;20501;45.956;13.632;2023-03-14T03:15:34;99828.22;;;11.06;79.83
34237;BME280;20501;45.956;13.632;2023-03-14T03:18:00;99824.47;;;12.26;70.62
34237;BME280;20501;45.956;13.632;2023-03-14T03:20:25;99827.16;;;13.15;66.86
34237;BME280;20501;45.956;13.632;2023-03-14T03:22:51;99832.91;;;11.98;75.26
34237;BME280;20501;45.956;13.632;2023-03-14T03:25:16;99842.09;;;11.11;80.12
34237;BME280;20501;45.956;13.632;2023-03-14T03:27:42;99833.66;;;11.14;76.47
34237;BME280;20501;45.956;13.632;2023-03-14T03:30:09;99836.97;;;11.42;78.02
34237;BME280;20501;45.956;13.632;2023-03-14T03:32:35;99843.41;;;12.26;71.58
34237;BME280;20501;45.956;13.632;2023-03-14T03:35:02;99843.75;;;12.06;72.61
34237;BME280;20501;45.956;13.632;2023-03-14T03:37:30;99845.00;;;11.69;76.68
34237;BME280;20501;45.956;13.632;2023-03-14T03:39:55;99837.31;;;12.07;72.88
34237;BME280;20501;45.956;13.632;2023-03-14T03:42:21;99840.81;;;12.82;68.57
34237;BME280;20501;45.956;13.632;2023-03-14T03:44:46;99822.44;;;13.09;67.44
34237;BME280;20501;45.956;13.632;2023-03-14T03:47:12;99826.88;;;13.50;65.85
34237;BME280;20501;45.956;13.632;2023-03-14T03:49:38;99816.91;;;13.42;65.75
34237;BME280;20501;45.956;13.632;2023-03-14T03:52:03;99829.31;;;11.21;78.85
34237;BME280;20501;45.956;13.632;2023-03-14T03:54:28;99820.72;;;12.02;71.74
34237;BME280;20501;45.956;13.632;2023-03-14T03:56:54;99831.22;;;12.38;73.84
34237;BME280;20501;45.956;13.632;2023-03-14T03:59:20;99822.06;;;12.56;72.57
34237;BME280;20501;45.956;13.632;2023-03-14T04:01:46;99814.81;;;11.98;73.14
34237;BME280;20501;45.956;13.632;2023-03-14T04:04:11;99810.78;;;13.00;68.11
34237;BME280;20501;45.956;13.632;2023-03-14T04:06:37;99801.44;;;13.03;70.21
34237;BME280;20501;45.956;13.632;2023-03-14T04:09:03;99795.38;;;13.00;67.85
34237;BME280;20501;45.956;13.632;2023-03-14T04:11:28;99804.41;;;12.84;68.17
34237;BME280;20501;45.956;13.632;2023-03-14T04:13:54;99809.44;;;11.47;77.23
34237;BME280;20501;45.956;13.632;2023-03-14T04:16:22;99799.53;;;11.81;74.62
34237;BME280;20501;45.956;13.632;2023-03-14T04:18:48;99785.69;;;12.17;72.31
34237;BME280;20501;45.956;13.632;2023-03-14T04:21:14;99784.84;;;12.33;72.19
34237;BME280;20501;45.956;13.632;2023-03-14T04:23:40;99786.88;;;12.22;71.93
34237;BME280;20501;45.956;13.632;2023-03-14T04:26:05;99786.38;;;12.19;73.27
34237;BME280;20501;45.956;13.632;2023-03-14T04:28:31;99790.78;;;12.12;74.64
34237;BME280;20501;45.956;13.632;2023-03-14T04:30:56;99785.19;;;12.13;74.82
34237;BME280;20501;45.956;13.632;2023-03-14T04:33:22;99787.59;;;12.08;75.22
34237;BME280;20501;45.956;13.632;2023-03-14T04:35:47;99776.91;;;11.98;75.92
34237;BME280;20501;45.956;13.632;2023-03-14T04:38:15;99766.22;;;11.88;75.93
34237;BME280;20501;45.956;13.632;2023-03-14T04:40:41;99775.06;;;12.07;75.97
34237;BME280;20501;45.956;13.632;2023-03-14T04:43:08;99769.47;;;12.00;76.03
34237;BME280;20501;45.956;13.632;2023-03-14T04:45:35;99771.84;;;12.03;75.60
34237;BME280;20501;45.956;13.632;2023-03-14T04:48:00;99782.31;;;11.98;76.34
34237;BME280;20501;45.956;13.632;2023-03-14T04:50:26;99779.59;;;11.90;76.06
34237;BME280;20501;45.956;13.632;2023-03-14T04:52:51;99779.91;;;11.95;76.33
34237;BME280;20501;45.956;13.632;2023-03-14T04:55:17;99765.06;;;12.07;75.39
34237;BME280;20501;45.956;13.632;2023-03-14T04:57:42;99765.38;;;12.04;75.96
34237;BME280;20501;45.956;13.632;2023-03-14T05:00:09;99744.91;;;11.93;77.13
34237;BME280;20501;45.956;13.632;2023-03-14T05:02:35;99740.88;;;12.06;75.67
34237;BME280;20501;45.956;13.632;2023-03-14T05:05:01;99734.97;;;12.02;75.93
34237;BME280;20501;45.956;13.632;2023-03-14T05:07:26;99727.69;;;12.03;75.59
34237;BME280;20501;45.956;13.632;2023-03-14T05:09:52;99720.22;;;12.05;75.51
34237;BME280;20501;45.956;13.632;2023-03-14T05:12:19;99686.56;;;12.07;75.41
34237;BME280;20501;45.956;13.632;2023-03-14T05:14:44;99700.09;;;12.07;75.29
34237;BME280;20501;45.956;13.632;2023-03-14T05:17:10;99683.00;;;12.07;75.32
34237;BME280;20501;45.956;13.632;2023-03-14T05:19:36;99672.72;;;12.02;75.70
34237;BME280;20501;45.956;13.632;2023-03-14T05:22:02;99687.41;;;12.08;74.97
34237;BME280;20501;45.956;13.632;2023-03-14T05:24:27;99712.72;;;12.32;74.00
34237;BME280;20501;45.956;13.632;2023-03-14T05:26:53;99717.31;;;12.31;74.20
34237;BME280;20501;45.956;13.632;2023-03-14T05:29:18;99724.59;;;12.22;75.21
34237;BME280;20501;45.956;13.632;2023-03-14T05:31:43;99733.06;;;12.11;76.29
34237;BME280;20501;45.956;13.632;2023-03-14T05:34:09;99725.97;;;12.02;76.68
34237;BME280;20501;45.956;13.632;2023-03-14T05:36:34;99721.41;;;12.11;76.93
34237;BME280;20501;45.956;13.632;2023-03-14T05:39:00;99710.06;;;11.90;77.71
34237;BME280;20501;45.956;13.632;2023-03-14T05:41:25;99693.16;;;11.97;77.67
34237;BME280;20501;45.956;13.632;2023-03-14T05:43:51;99707.84;;;11.94;77.87
34237;BME280;20501;45.956;13.632;2023-03-14T05:46:16;99678.06;;;11.94;78.53
34237;BME280;20501;45.956;13.632;2023-03-14T05:48:41;99686.72;;;11.89;79.59
34237;BME280;20501;45.956;13.632;2023-03-14T05:51:07;99665.59;;;12.01;78.91
34237;BME280;20501;45.956;13.632;2023-03-14T05:53:32;99677.06;;;11.95;79.27
34237;BME280;20501;45.956;13.632;2023-03-14T05:55:58;99675.25;;;11.87;79.44
34237;BME280;20501;45.956;13.632;2023-03-14T05:58:23;99642.75;;;12.04;78.82
34237;BME280;20501;45.956;13.632;2023-03-14T06:00:50;99615.78;;;12.19;74.35
34237;BME280;20501;45.956;13.632;2023-03-14T06:03:15;99610.06;;;11.97;78.04
34237;BME280;20501;45.956;13.632;2023-03-14T06:05:41;99630.19;;;12.11;75.75
34237;BME280;20501;45.956;13.632;2023-03-14T06:08:06;99647.63;;;12.25;74.13
34237;BME280;20501;45.956;13.632;2023-03-14T06:10:32;99666.28;;;12.60;72.85
34237;BME280;20501;45.956;13.632;2023-03-14T06:12:57;99668.56;;;12.31;77.52
34237;BME280;20501;45.956;13.632;2023-03-14T06:15:23;99650.00;;;11.87;79.28
34237;BME280;20501;45.956;13.632;2023-03-14T06:17:48;99640.38;;;12.01;76.02
34237;BME280;20501;45.956;13.632;2023-03-14T06:20:14;99637.91;;;12.39;75.84
34237;BME280;20501;45.956;13.632;2023-03-14T06:22:39;99632.53;;;12.22;76.98
34237;BME280;20501;45.956;13.632;2023-03-14T06:25:06;99614.47;;;12.15;77.83
34237;BME280;20501;45.956;13.632;2023-03-14T06:27:31;99614.47;;;12.06;77.71
34237;BME280;20501;45.956;13.632;2023-03-14T06:29:57;99611.78;;;11.90;79.04
34237;BME280;20501;45.956;13.632;2023-03-14T06:32:22;99592.03;;;11.98;78.72
34237;BME280;20501;45.956;13.632;2023-03-14T06:34:48;99597.78;;;11.86;80.89
34237;BME280;20501;45.956;13.632;2023-03-14T06:37:13;99614.31;;;12.00;79.05
34237;BME280;20501;45.956;13.632;2023-03-14T06:39:39;99608.41;;;11.88;79.64
34237;BME280;20501;45.956;13.632;2023-03-14T06:42:05;99588.19;;;12.23;77.02
34237;BME280;20501;45.956;13.632;2023-03-14T06:44:30;99589.97;;;12.08;78.59
34237;BME280;20501;45.956;13.632;2023-03-14T06:46:56;99607.59;;;12.44;73.80
34237;BME280;20501;45.956;13.632;2023-03-14T06:49:21;99602.41;;;12.26;74.66
34237;BME280;20501;45.956;13.632;2023-03-14T06:51:47;99595.94;;;12.35;73.47
34237;BME280;20501;45.956;13.632;2023-03-14T06:54:12;99587.75;;;12.12;79.18
34237;BME280;20501;45.956;13.632;2023-03-14T06:56:38;99583.13;;;12.29;75.11
34237;BME280;20501;45.956;13.632;2023-03-14T06:59:03;99576.53;;;12.23;75.54
34237;BME280;20501;45.956;13.632;2023-03-14T07:01:30;99581.38;;;12.36;75.87
34237;BME280;20501;45.956;13.632;2023-03-14T07:03:56;99577.94;;;12.50;74.38
34237;BME280;20501;45.956;13.632;2023-03-14T07:06:21;99580.03;;;12.32;75.18
34237;BME280;20501;45.956;13.632;2023-03-14T07:08:47;99583.31;;;12.19;74.84
34237;BME280;20501;45.956;13.632;2023-03-14T07:11:13;99572.13;;;12.22;74.88
34237;BME280;20501;45.956;13.632;2023-03-14T07:13:39;99582.09;;;12.21;75.24
34237;BME280;20501;45.956;13.632;2023-03-14T07:16:05;99572.31;;;12.12;74.82
34237;BME280;20501;45.956;13.632;2023-03-14T07:18:31;99555.28;;;12.03;75.53
34237;BME280;20501;45.956;13.632;2023-03-14T07:20:56;99559.13;;;12.17;75.52
34237;BME280;20501;45.956;13.632;2023-03-14T07:23:22;99544.72;;;12.17;75.85
34237;BME280;20501;45.956;13.632;2023-03-14T07:25:47;99543.38;;;12.21;74.84
34237;BME280;20501;45.956;13.632;2023-03-14T07:28:12;99539.94;;;12.59;72.01
34237;BME280;20501;45.956;13.632;2023-03-14T07:30:38;99534.53;;;12.27;73.56
34237;BME280;20501;45.956;13.632;2023-03-14T07:33:03;99527.78;;;12.54;72.71
34237;BME280;20501;45.956;13.632;2023-03-14T07:35:29;99536.88;;;12.30;73.54
34237;BME280;20501;45.956;13.632;2023-03-14T07:37:54;99540.34;;;12.47;73.17
34237;BME280;20501;45.956;13.632;2023-03-14T07:40:20;99535.00;;;12.39;72.09
34237;BME280;20501;45.956;13.632;2023-03-14T07:42:45;99533.50;;;12.60;70.97
34237;BME280;20501;45.956;13.632;2023-03-14T07:45:11;99522.69;;;13.06;68.73
34237;BME280;20501;45.956;13.632;2023-03-14T07:47:37;99520.47;;;13.25;67.69
34237;BME280;20501;45.956;13.632;2023-03-14T07:50:04;99507.13;;;13.00;71.81
34237;BME280;20501;45.956;13.632;2023-03-14T07:52:30;99489.16;;;12.61;72.67
34237;BME280;20501;45.956;13.632;2023-03-14T07:54:55;99500.66;;;12.63;71.86
34237;BME280;20501;45.956;13.632;2023-03-14T07:57:21;99490.66;;;12.63;72.01
34237;BME280;20501;45.956;13.632;2023-03-14T07:59:46;99488.66;;;12.80;70.78
34237;BME280;20501;45.956;13.632;2023-03-14T08:02:12;99488.41;;;12.67;72.09
34237;BME280;20501;45.956;13.632;2023-03-14T08:04:39;99490.22;;;12.51;72.11
34237;BME280;20501;45.956;13.632;2023-03-14T08:07:05;99489.06;;;12.92;69.40
34237;BME280;20501;45.956;13.632;2023-03-14T08:09:31;99500.69;;;13.01;70.42
34237;BME280;20501;45.956;13.632;2023-03-14T08:11:56;99508.50;;;12.96;70.79
34237;BME280;20501;45.956;13.632;2023-03-14T08:14:21;99503.66;;;12.68;73.51
34237;BME280;20501;45.956;13.632;2023-03-14T08:16:49;99527.38;;;12.66;73.42
34237;BME280;20501;45.956;13.632;2023-03-14T08:19:15;99545.72;;;12.56;73.26
34237;BME280;20501;45.956;13.632;2023-03-14T08:21:40;99549.50;;;12.15;75.63
34237;BME280;20501;45.956;13.632;2023-03-14T08:24:06;99551.16;;;12.16;75.99
34237;BME280;20501;45.956;13.632;2023-03-14T08:26:31;99561.59;;;12.35;73.41
34237;BME280;20501;45.956;13.632;2023-03-14T08:28:57;99554.16;;;12.61;71.59
34237;BME280;20501;45.956;13.632;2023-03-14T08:31:22;99550.00;;;12.18;76.58
34237;BME280;20501;45.956;13.632;2023-03-14T08:33:48;99555.44;;;12.02;75.47
34237;BME280;20501;45.956;13.632;2023-03-14T08:36:13;99550.91;;;12.34;74.09
34237;BME280;20501;45.956;13.632;2023-03-14T08:38:39;99542.31;;;12.85;70.66
34237;BME280;20501;45.956;13.632;2023-03-14T08:41:08;99554.25;;;12.99;69.63
34237;BME280;20501;45.956;13.632;2023-03-14T08:43:33;99566.50;;;11.67;79.92
34237;BME280;20501;45.956;13.632;2023-03-14T08:46:00;99543.06;;;12.47;73.43
34237;BME280;20501;45.956;13.632;2023-03-14T08:48:27;99534.94;;;12.47;75.96
34237;BME280;20501;45.956;13.632;2023-03-14T08:51:10;99534.09;;;12.47;77.69
34237;BME280;20501;45.956;13.632;2023-03-14T08:53:37;99522.53;;;12.30;77.63
34237;BME280;20501;45.956;13.632;2023-03-14T08:56:03;99528.94;;;11.72;81.05
34237;BME280;20501;45.956;13.632;2023-03-14T08:58:30;99532.00;;;12.57;73.25
34237;BME280;20501;45.956;13.632;2023-03-14T09:00:56;99533.13;;;12.00;78.38
34237;BME280;20501;45.956;13.632;2023-03-14T09:03:21;99540.53;;;12.46;73.47
34237;BME280;20501;45.956;13.632;2023-03-14T09:05:49;99548.13;;;11.54;80.97
34237;BME280;20501;45.956;13.632;2023-03-14T09:08:14;99537.00;;;11.16;82.83
34237;BME280;20501;45.956;13.632;2023-03-14T09:10:40;99538.16;;;11.30;81.16
34237;BME280;20501;45.956;13.632;2023-03-14T09:13:05;99534.06;;;11.59;79.94
34237;BME280;20501;45.956;13.632;2023-03-14T09:15:31;99529.72;;;12.06;77.90
34237;BME280;20501;45.956;13.632;2023-03-14T09:17:56;99527.31;;;12.97;70.97
34237;BME280;20501;45.956;13.632;2023-03-14T09:20:21;99532.78;;;13.12;70.93
34237;BME280;20501;45.956;13.632;2023-03-14T09:22:47;99519.00;;;12.99;71.04
34237;BME280;20501;45.956;13.632;2023-03-14T09:25:13;99507.81;;;13.40;68.94
34237;BME280;20501;45.956;13.632;2023-03-14T09:27:38;99513.53;;;12.61;73.30
34237;BME280;20501;45.956;13.632;2023-03-14T09:30:04;99516.47;;;12.74;74.50
34237;BME280;20501;45.956;13.632;2023-03-14T09:32:30;99520.25;;;12.65;74.82
34237;BME280;20501;45.956;13.632;2023-03-14T09:34:57;99524.53;;;12.59;73.38
34237;BME280;20501;45.956;13.632;2023-03-14T09:37:22;99515.13;;;13.16;72.60
34237;BME280;20501;45.956;13.632;2023-03-14T09:39:48;99514.56;;;13.06;71.19
34237;BME280;20501;45.956;13.632;2023-03-14T09:42:17;99515.94;;;12.24;79.85
34237;BME280;20501;45.956;13.632;2023-03-14T09:47:18;99522.25;;;12.71;77.29
34237;BME280;20501;45.956;13.632;2023-03-14T09:49:45;99522.63;;;12.68;72.91
34237;BME280;20501;45.956;13.632;2023-03-14T09:52:33;99514.16;;;13.09;71.28
34237;BME280;20501;45.956;13.632;2023-03-14T09:55:06;99522.91;;;13.58;68.54
34237;BME280;20501;45.956;13.632;2023-03-14T09:57:35;99505.63;;;12.74;77.63
34237;BME280;20501;45.956;13.632;2023-03-14T10:02:41;99511.22;;;12.96;73.06
34237;BME280;20501;45.956;13.632;2023-03-14T10:05:15;99502.38;;;13.40;70.23
34237;BME280;20501;45.956;13.632;2023-03-14T10:07:41;99506.13;;;12.78;78.15
34237;BME280;20501;45.956;13.632;2023-03-14T10:10:11;99514.25;;;12.78;73.35
34237;BME280;20501;45.956;13.632;2023-03-14T10:12:38;99518.75;;;12.85;73.42
34237;BME280;20501;45.956;13.632;2023-03-14T10:15:07;99512.66;;;13.07;72.04
34237;BME280;20501;45.956;13.632;2023-03-14T10:17:47;99509.06;;;13.14;70.91
34237;BME280;20501;45.956;13.632;2023-03-14T10:23:23;99483.47;;;12.94;74.20
34237;BME280;20501;45.956;13.632;2023-03-14T10:26:05;99492.06;;;12.97;76.03
34237;BME280;20501;45.956;13.632;2023-03-14T10:28:33;99494.31;;;13.32;71.71
34237;BME280;20501;45.956;13.632;2023-03-14T10:30:59;99494.78;;;12.51;79.58
34237;BME280;20501;45.956;13.632;2023-03-14T10:33:28;99490.66;;;13.01;71.48
34237;BME280;20501;45.956;13.632;2023-03-14T10:35:56;99484.41;;;13.01;71.00
34237;BME280;20501;45.956;13.632;2023-03-14T10:38:25;99486.97;;;13.41;69.79
34237;BME280;20501;45.956;13.632;2023-03-14T10:40:52;99470.56;;;12.96;72.64
34237;BME280;20501;45.956;13.632;2023-03-14T10:43:33;99480.34;;;12.59;77.57
34237;BME280;20501;45.956;13.632;2023-03-14T10:46:05;99499.34;;;12.97;71.69
34237;BME280;20501;45.956;13.632;2023-03-14T10:48:35;99497.63;;;12.58;75.26
34237;BME280;20501;45.956;13.632;2023-03-14T10:53:46;99490.16;;;12.05;76.01
34237;BME280;20501;45.956;13.632;2023-03-14T10:56:18;99481.53;;;11.93;75.36
34237;BME280;20501;45.956;13.632;2023-03-14T10:58:48;99482.47;;;11.69;76.88
34237;BME280;20501;45.956;13.632;2023-03-14T11:04:00;99486.28;;;11.99;76.30
34237;BME280;20501;45.956;13.632;2023-03-14T11:06:38;99487.69;;;11.79;77.07
34237;BME280;20501;45.956;13.632;2023-03-14T11:09:21;99481.25;;;11.80;79.01
34237;BME280;20501;45.956;13.632;2023-03-14T11:11:48;99472.38;;;11.54;79.35
34237;BME280;20501;45.956;13.632;2023-03-14T11:17:11;99476.09;;;12.33;75.85
34237;BME280;20501;45.956;13.632;2023-03-14T11:20:03;99471.00;;;12.61;73.18
34237;BME280;20501;45.956;13.632;2023-03-14T11:22:46;99473.34;;;13.11;70.51
34237;BME280;20501;45.956;13.632;2023-03-14T11:25:24;99467.25;;;12.85;71.51
34237;BME280;20501;45.956;13.632;2023-03-14T11:28:18;99462.78;;;12.78;74.93
34237;BME280;20501;45.956;13.632;2023-03-14T11:31:00;99460.34;;;12.36;73.79
34237;BME280;20501;45.956;13.632;2023-03-14T11:36:33;99440.97;;;12.25;78.58
34237;BME280;20501;45.956;13.632;2023-03-14T11:39:10;99424.25;;;11.81;81.77
34237;BME280;20501;45.956;13.632;2023-03-14T11:41:44;99406.97;;;12.22;77.87
34237;BME280;20501;45.956;13.632;2023-03-14T11:44:17;99398.78;;;11.67;80.58
34237;BME280;20501;45.956;13.632;2023-03-14T11:47:06;99412.13;;;11.69;80.53
34237;BME280;20501;45.956;13.632;2023-03-14T11:49:37;99415.75;;;11.53;79.70
34237;BME280;20501;45.956;13.632;2023-03-14T11:52:19;99407.81;;;11.51;78.14
34237;BME280;20501;45.956;13.632;2023-03-14T11:55:13;99397.19;;;11.50;79.36
34237;BME280;20501;45.956;13.632;2023-03-14T11:57:41;99396.03;;;11.44;79.14
34237;BME280;20501;45.956;13.632;2023-03-14T12:00:20;99393.38;;;11.67;78.03
34237;BME280;20501;45.956;13.632;2023-03-14T12:03:06;99378.09;;;11.43;79.41
34237;BME280;20501;45.956;13.632;2023-03-14T12:08:43;99368.00;;;11.28;79.93
34237;BME280;20501;45.956;13.632;2023-03-14T12:11:20;99357.53;;;11.25;81.07
34237;BME280;20501;45.956;13.632;2023-03-14T12:13:50;99354.06;;;11.48;79.25
34237;BME280;20501;45.956;13.632;2023-03-14T12:16:25;99350.19;;;11.42;78.92
34237;BME280;20501;45.956;13.632;2023-03-14T12:18:52;99348.94;;;11.61;78.90
34237;BME280;20501;45.956;13.632;2023-03-14T12:21:18;99351.75;;;11.37;79.75
34237;BME280;20501;45.956;13.632;2023-03-14T12:23:54;99342.97;;;11.35;79.90
34237;BME280;20501;45.956;13.632;2023-03-14T12:26:21;99342.72;;;11.53;78.69
34237;BME280;20501;45.956;13.632;2023-03-14T12:28:51;99336.53;;;11.44;79.73
34237;BME280;20501;45.956;13.632;2023-03-14T12:34:26;99314.28;;;11.34;79.64
34237;BME280;20501;45.956;13.632;2023-03-14T12:37:04;99306.03;;;11.27;80.18
34237;BME280;20501;45.956;13.632;2023-03-14T12:39:47;99311.44;;;11.27;80.60
34237;BME280;20501;45.956;13.632;2023-03-14T12:42:35;99304.56;;;11.39;80.07
34237;BME280;20501;45.956;13.632;2023-03-14T12:45:22;99305.50;;;11.23;81.61
34237;BME280;20501;45.956;13.632;2023-03-14T12:50:41;99281.50;;;11.28;80.56
34237;BME280;20501;45.956;13.632;2023-03-14T12:55:55;99279.13;;;11.25;80.34
34237;BME280;20501;45.956;13.632;2023-03-14T12:58:39;99288.88;;;11.35;80.41
34237;BME280;20501;45.956;13.632;2023-03-14T13:01:16;99279.28;;;11.32;80.28
34237;BME280;20501;45.956;13.632;2023-03-14T13:04:01;99290.22;;;11.39;79.94
34237;BME280;20501;45.956;13.632;2023-03-14T13:11:53;99290.66;;;11.19;81.07
34237;BME280;20501;45.956;13.632;2023-03-14T13:14:19;99283.03;;;11.23;80.87
34237;BME280;20501;45.956;13.632;2023-03-14T13:16:46;99292.31;;;11.28;81.48
34237;BME280;20501;45.956;13.632;2023-03-14T13:19:27;99296.66;;;11.38;81.30
34237;BME280;20501;45.956;13.632;2023-03-14T13:22:02;99288.88;;;11.35;81.95
34237;BME280;20501;45.956;13.632;2023-03-14T13:24:28;99301.47;;;11.59;80.09
34237;BME280;20501;45.956;13.632;2023-03-14T13:26:55;99299.00;;;11.41;81.59
34237;BME280;20501;45.956;13.632;2023-03-14T13:29:25;99298.88;;;11.34;82.15
34237;BME280;20501;45.956;13.632;2023-03-14T13:31:56;99305.47;;;11.32;82.84
34237;BME280;20501;45.956;13.632;2023-03-14T13:34:25;99312.97;;;11.53;80.89
34237;BME280;20501;45.956;13.632;2023-03-14T13:36:52;99309.28;;;11.77;80.25